createdAt,value
2022-09-28T00:02:41.744Z,8.78
2022-09-28T00:09:56.720Z,8.72
2022-09-28T00:13:04.899Z,8.72
2022-09-28T00:20:26.080Z,8.77
2022-09-28T00:23:32.739Z,8.81
2022-09-28T00:27:00.818Z,8.87
2022-09-28T00:30:11.988Z,8.92
2022-09-28T00:33:18.945Z,8.95
2022-09-28T00:36:30.665Z,8.98
2022-09-28T00:43:40.432Z,8.99
2022-09-28T00:46:53.054Z,8.99
2022-09-28T00:54:04.449Z,8.95
2022-09-28T00:58:02.566Z,8.92
2022-09-28T01:01:09.019Z,8.87
2022-09-28T01:04:53.271Z,8.82
2022-09-28T01:08:24.622Z,8.76
2022-09-28T01:15:37.400Z,8.75
2022-09-28T01:18:53.225Z,8.76
2022-09-28T01:21:50.333Z,8.78
2022-09-28T01:29:05.074Z,8.80
2022-09-28T01:32:22.542Z,8.79
2022-09-28T01:39:34.638Z,8.79
2022-09-28T01:42:27.458Z,8.78
2022-09-28T01:45:38.574Z,8.78
2022-09-28T01:52:51.908Z,8.79
2022-09-28T01:56:02.120Z,8.79
2022-09-28T01:59:25.198Z,8.78
2022-09-28T02:06:38.277Z,8.74
2022-09-28T02:09:50.515Z,8.75
2022-09-28T02:13:00.851Z,8.74
2022-09-28T02:16:14.643Z,8.74
2022-09-28T02:19:25.294Z,8.70
2022-09-28T02:22:25.315Z,8.69
2022-09-28T02:26:11.309Z,8.68
2022-09-28T02:33:11.666Z,8.63
2022-09-28T02:36:19.763Z,8.61
2022-09-28T02:39:43.901Z,8.60
2022-09-28T02:42:58.215Z,8.61
2022-09-28T02:46:14.658Z,8.61
2022-09-28T02:49:28.641Z,8.61
2022-09-28T02:52:46.233Z,8.62
2022-09-28T02:56:00.283Z,8.61
2022-09-28T02:59:14.347Z,8.61
2022-09-28T03:02:27.756Z,8.61
2022-09-28T03:05:41.206Z,8.59
2022-09-28T03:09:06.973Z,8.59
2022-09-28T03:12:17.592Z,8.60
2022-09-28T03:15:27.527Z,8.59
2022-09-28T03:18:34.938Z,8.59
2022-09-28T03:21:43.152Z,8.58
2022-09-28T03:24:58.278Z,8.56
2022-09-28T03:28:44.951Z,8.54
2022-09-28T03:31:53.113Z,8.47
2022-09-28T03:35:02.025Z,8.42
2022-09-28T03:38:12.243Z,8.39
2022-09-28T03:41:24.409Z,8.38
2022-09-28T03:44:32.564Z,8.38
2022-09-28T03:47:44.985Z,8.39
2022-09-28T03:50:54.250Z,8.40
2022-09-28T03:54:02.575Z,8.42
2022-09-28T03:57:11.682Z,8.43
2022-09-28T04:00:20.148Z,8.46
2022-09-28T04:03:28.338Z,8.48
2022-09-28T04:06:44.750Z,8.50
2022-09-28T04:09:52.829Z,8.52
2022-09-28T04:13:13.212Z,8.54
2022-09-28T04:16:21.495Z,8.56
2022-09-28T04:19:34.564Z,8.57
2022-09-28T04:22:51.601Z,8.59
2022-09-28T04:26:00.848Z,8.59
2022-09-28T04:29:17.357Z,8.61
2022-09-28T04:32:25.756Z,8.62
2022-09-28T04:35:34.868Z,8.64
2022-09-28T04:38:59.358Z,8.64
2022-09-28T04:42:06.103Z,8.63
2022-09-28T04:45:15.440Z,8.64
2022-09-28T04:49:02.056Z,8.64
2022-09-28T04:52:18.264Z,8.64
2022-09-28T04:55:28.420Z,8.64
2022-09-28T05:03:14.134Z,8.64
2022-09-28T05:06:34.605Z,8.62
2022-09-28T05:09:45.811Z,8.56
2022-09-28T05:12:55.054Z,8.51
2022-09-28T05:16:05.596Z,8.47
2022-09-28T05:19:14.197Z,8.45
2022-09-28T05:22:23.486Z,8.43
2022-09-28T05:25:33.838Z,8.39
2022-09-28T05:28:42.088Z,8.34
2022-09-28T05:32:07.893Z,8.30
2022-09-28T05:35:16.036Z,8.25
2022-09-28T05:38:22.935Z,8.19
2022-09-28T05:45:50.352Z,8.10
2022-09-28T05:49:01.355Z,8.09
2022-09-28T05:56:11.329Z,8.08
2022-09-28T05:59:09.457Z,8.06
2022-09-28T06:02:36.323Z,8.06
2022-09-28T06:05:44.800Z,8.05
2022-09-28T06:08:52.409Z,8.05
2022-09-28T06:12:06.808Z,8.04
2022-09-28T06:15:14.868Z,8.01
2022-09-28T06:18:23.185Z,7.98
2022-09-28T06:21:37.468Z,7.95
2022-09-28T06:24:45.626Z,7.94
2022-09-28T06:32:13.469Z,7.92
2022-09-28T06:35:21.990Z,7.92
2022-09-28T06:42:39.429Z,7.88
2022-09-28T06:46:09.242Z,7.89
2022-09-28T06:49:34.748Z,7.92
2022-09-28T06:52:41.581Z,7.96
2022-09-28T06:56:07.478Z,8.03
2022-09-28T06:58:58.967Z,8.06
2022-09-28T07:02:01.179Z,8.07
2022-09-28T07:05:13.868Z,8.10
2022-09-28T07:08:23.848Z,8.16
2022-09-28T07:11:44.469Z,8.56
2022-09-28T07:14:57.124Z,9.79
2022-09-28T07:18:10.296Z,10.95
2022-09-28T07:21:28.322Z,12.06
2022-09-28T07:24:01.953Z,12.89
2022-09-28T07:27:15.998Z,12.43
2022-09-28T07:30:22.758Z,11.84
2022-09-28T07:33:32.159Z,11.52
2022-09-28T07:36:22.224Z,11.42
2022-09-28T07:39:30.430Z,10.98
2022-09-28T07:42:46.850Z,10.57
2022-09-28T07:45:59.343Z,10.32
2022-09-28T07:49:15.165Z,10.12
2022-09-28T07:52:38.565Z,10.12
2022-09-28T07:55:51.532Z,10.72
2022-09-28T07:58:46.808Z,11.64
2022-09-28T08:01:49.841Z,12.40
2022-09-28T08:04:37.917Z,13.64
2022-09-28T08:07:09.739Z,15.45
2022-09-28T08:09:37.522Z,17.29
2022-09-28T08:12:40.117Z,18.93
2022-09-28T08:16:08.050Z,18.87
2022-09-28T08:18:53.591Z,18.01
2022-09-28T08:21:42.250Z,17.23
2022-09-28T08:24:33.472Z,16.61
2022-09-28T08:27:13.578Z,15.98
2022-09-28T08:29:43.660Z,15.52
2022-09-28T08:32:50.849Z,15.11
2022-09-28T08:35:38.646Z,14.83
2022-09-28T08:38:48.006Z,14.60
2022-09-28T08:41:42.434Z,14.31
2022-09-28T08:44:33.147Z,14.22
2022-09-28T08:47:54.291Z,14.13
2022-09-28T08:50:51.693Z,14.02
2022-09-28T08:53:58.180Z,13.91
2022-09-28T08:56:38.618Z,13.85
2022-09-28T08:59:31.637Z,14.04
2022-09-28T09:02:28.721Z,14.38
2022-09-28T09:05:14.344Z,14.18
2022-09-28T09:08:05.604Z,14.56
2022-09-28T09:10:48.660Z,15.01
2022-09-28T09:13:31.861Z,15.92
2022-09-28T09:16:42.316Z,16.14
2022-09-28T09:19:52.527Z,16.83
2022-09-28T09:22:38.426Z,17.27
2022-09-28T09:25:14.218Z,16.93
2022-09-28T09:27:47.457Z,17.27
2022-09-28T09:30:22.080Z,16.98
2022-09-28T09:33:04.893Z,16.62
2022-09-28T09:35:52.957Z,16.69
2022-09-28T09:38:49.624Z,16.97
2022-09-28T09:42:03.028Z,17.11
2022-09-28T09:44:44.885Z,17.04
2022-09-28T09:47:54.154Z,16.74
2022-09-28T09:50:29.659Z,16.41
2022-09-28T09:53:00.661Z,17.72
2022-09-28T09:55:34.234Z,18.08
2022-09-28T09:58:28.637Z,17.51
2022-09-28T10:01:07.410Z,17.03
2022-09-28T10:03:56.299Z,16.94
2022-09-28T10:10:41.000Z,16.71
2022-09-28T10:13:16.139Z,16.59
2022-09-28T10:16:23.697Z,16.44
2022-09-28T10:23:42.227Z,16.27
2022-09-28T10:26:25.300Z,16.20
2022-09-28T10:29:14.180Z,16.47
2022-09-28T10:31:46.074Z,16.99
2022-09-28T10:34:37.380Z,16.98
2022-09-28T10:38:27.036Z,16.75
2022-09-28T10:41:36.083Z,16.24
2022-09-28T10:44:18.039Z,16.24
2022-09-28T10:47:26.885Z,16.39
2022-09-28T10:50:05.311Z,15.98
2022-09-28T10:53:10.625Z,15.57
2022-09-28T11:00:44.843Z,15.67
2022-09-28T11:03:56.375Z,15.55
2022-09-28T11:10:30.961Z,14.96
2022-09-28T11:13:50.736Z,14.78
2022-09-28T11:16:32.634Z,14.82
2022-09-28T11:19:32.868Z,15.63
2022-09-28T11:22:21.441Z,16.28
2022-09-28T11:25:14.471Z,16.67
2022-09-28T11:27:57.125Z,16.78
2022-09-28T11:30:47.974Z,16.57
2022-09-28T11:33:40.780Z,16.35
2022-09-28T11:36:58.413Z,16.19
2022-09-28T11:39:54.352Z,16.23
2022-09-28T11:42:55.324Z,17.00
2022-09-28T11:45:56.566Z,16.98
2022-09-28T11:49:08.507Z,16.60
2022-09-28T11:52:00.425Z,16.01
2022-09-28T11:54:43.117Z,15.63
2022-09-28T12:06:27.018Z,16.79
2022-09-28T12:09:03.270Z,17.17
2022-09-28T12:12:18.464Z,16.93
2022-09-28T12:14:53.312Z,16.58
2022-09-28T12:17:24.744Z,16.30
2022-09-28T12:19:55.562Z,16.18
2022-09-28T12:22:37.279Z,16.15
2022-09-28T12:25:11.980Z,16.07
2022-09-28T12:27:46.002Z,15.98
2022-09-28T12:30:18.842Z,15.93
2022-09-28T12:32:54.409Z,15.78
2022-09-28T12:36:09.521Z,15.60
2022-09-28T12:39:53.606Z,15.30
2022-09-28T12:42:39.602Z,14.88
2022-09-28T12:46:10.540Z,14.38
2022-09-28T12:52:42.610Z,13.24
2022-09-28T12:55:47.530Z,12.87
2022-09-28T12:58:43.920Z,12.57
2022-09-28T13:02:04.167Z,12.37
2022-09-28T13:05:13.612Z,12.22
2022-09-28T13:08:27.050Z,12.08
2022-09-28T13:11:40.991Z,11.98
2022-09-28T13:15:15.415Z,12.11
2022-09-28T13:18:45.628Z,13.15
2022-09-28T13:21:39.297Z,14.60
2022-09-28T13:24:33.658Z,15.96
2022-09-28T13:27:16.099Z,16.07
2022-09-28T13:29:52.276Z,16.15
2022-09-28T13:36:47.169Z,17.27
2022-09-28T13:39:58.429Z,19.10
2022-09-28T13:42:44.275Z,20.08
2022-09-28T13:45:49.373Z,22.33
2022-09-28T13:48:27.909Z,23.74
2022-09-28T13:51:09.409Z,25.08
2022-09-28T13:53:59.340Z,25.75
2022-09-28T13:56:43.143Z,25.83
2022-09-28T13:59:45.809Z,25.31
2022-09-28T14:02:40.278Z,24.04
2022-09-28T14:05:34.276Z,21.94
2022-09-28T14:08:20.373Z,19.96
2022-09-28T14:11:31.201Z,18.39
2022-09-28T14:14:56.916Z,16.90
2022-09-28T14:18:42.347Z,15.61
2022-09-28T14:22:03.114Z,14.85
2022-09-28T14:24:49.195Z,14.42
2022-09-28T14:27:34.382Z,14.57
2022-09-28T14:30:25.806Z,16.13
2022-09-28T14:32:55.396Z,16.98
2022-09-28T14:35:31.364Z,17.45
2022-09-28T14:38:24.837Z,17.63
2022-09-28T14:41:11.033Z,18.20
2022-09-28T14:44:02.018Z,18.56
2022-09-28T14:46:45.158Z,18.80
2022-09-28T14:49:30.887Z,18.89
2022-09-28T14:52:04.314Z,18.99
2022-09-28T14:54:52.675Z,19.04
2022-09-28T14:57:22.673Z,19.05
2022-09-28T14:59:59.061Z,18.91
2022-09-28T15:02:31.136Z,18.69
2022-09-28T15:05:04.209Z,18.54
2022-09-28T15:07:47.469Z,18.38
2022-09-28T15:10:32.597Z,18.03
2022-09-28T15:13:05.013Z,17.84
2022-09-28T15:15:37.723Z,18.02
2022-09-28T15:18:18.133Z,17.86
2022-09-28T15:20:58.141Z,17.35
2022-09-28T15:23:28.204Z,16.85
2022-09-28T15:25:58.663Z,16.41
2022-09-28T15:28:29.156Z,15.99
2022-09-28T15:31:04.011Z,15.70
2022-09-28T15:33:53.346Z,15.58
2022-09-28T15:36:32.987Z,15.71
2022-09-28T15:39:02.188Z,15.77
2022-09-28T15:41:34.283Z,15.75
2022-09-28T15:44:45.295Z,15.70
2022-09-28T15:47:15.160Z,15.62
2022-09-28T15:50:05.256Z,15.31
2022-09-28T15:53:04.818Z,14.87
2022-09-28T15:55:34.687Z,14.63
2022-09-28T15:59:06.369Z,14.55
2022-09-28T16:01:45.460Z,14.56
2022-09-28T16:04:39.975Z,14.51
2022-09-28T16:07:56.599Z,14.30
2022-09-28T16:11:03.668Z,14.12
2022-09-28T16:14:05.682Z,13.89
2022-09-28T16:16:35.823Z,13.85
2022-09-28T16:20:00.567Z,13.83
2022-09-28T16:22:50.910Z,13.91
2022-09-28T16:25:35.439Z,13.86
2022-09-28T16:28:40.294Z,13.82
2022-09-28T16:31:34.609Z,13.79
2022-09-28T16:34:38.028Z,13.76
2022-09-28T16:37:42.300Z,13.74
2022-09-28T16:40:19.676Z,13.68
2022-09-28T16:43:30.302Z,13.61
2022-09-28T16:46:54.667Z,13.45
2022-09-28T16:49:53.260Z,13.27
2022-09-28T16:53:16.669Z,13.13
2022-09-28T16:56:18.054Z,13.02
2022-09-28T16:59:27.965Z,12.93
2022-09-28T17:02:52.364Z,12.87
2022-09-28T17:10:12.976Z,12.86
2022-09-28T17:13:39.660Z,12.84
2022-09-28T17:17:08.885Z,12.82
2022-09-28T17:20:01.403Z,12.82
2022-09-28T17:22:53.753Z,12.86
2022-09-28T17:26:16.444Z,12.91
2022-09-28T17:29:03.110Z,12.92
2022-09-28T17:31:54.760Z,12.91
2022-09-28T17:35:19.498Z,12.91
2022-09-28T17:38:23.309Z,12.86
2022-09-28T17:41:31.902Z,12.81
2022-09-28T17:44:48.909Z,12.76
2022-09-28T17:47:27.536Z,12.74
2022-09-28T17:50:20.671Z,12.69
2022-09-28T17:53:29.135Z,12.65
2022-09-28T17:56:37.738Z,12.59
2022-09-28T17:59:27.754Z,12.52
2022-09-28T18:02:16.167Z,12.46
2022-09-28T18:04:55.469Z,12.40
2022-09-28T18:08:24.784Z,12.34
2022-09-28T18:11:34.020Z,12.26
2022-09-28T18:15:01.000Z,12.21
2022-09-28T18:18:22.430Z,12.16
2022-09-28T18:21:32.480Z,12.12
2022-09-28T18:24:46.845Z,12.06
2022-09-28T18:27:54.165Z,12.01
2022-09-28T18:31:06.643Z,11.95
2022-09-28T18:34:13.452Z,11.88
2022-09-28T18:37:36.936Z,11.82
2022-09-28T18:41:05.313Z,11.78
2022-09-28T18:44:13.627Z,11.73
2022-09-28T18:47:40.616Z,11.67
2022-09-28T18:50:37.236Z,11.58
2022-09-28T18:53:57.020Z,11.51
2022-09-28T18:57:07.933Z,11.43
2022-09-28T19:00:16.465Z,11.34
2022-09-28T19:03:33.693Z,11.28
2022-09-28T19:06:57.240Z,11.23
2022-09-28T19:10:08.568Z,11.18
2022-09-28T19:13:16.370Z,11.12
2022-09-28T19:16:26.370Z,11.07
2022-09-28T19:19:51.285Z,11.03
2022-09-28T19:23:12.330Z,10.98
2022-09-28T19:26:21.917Z,10.94
2022-09-28T19:29:50.109Z,10.89
2022-09-28T19:33:23.369Z,10.83
2022-09-28T19:36:48.788Z,10.79
2022-09-28T19:40:05.382Z,10.74
2022-09-28T19:47:21.248Z,10.64
2022-09-28T19:50:28.165Z,10.59
2022-09-28T19:53:36.683Z,10.56
2022-09-28T19:56:46.756Z,10.51
2022-09-28T20:00:10.840Z,10.47
2022-09-28T20:03:21.222Z,10.43
2022-09-28T20:06:31.733Z,10.39
2022-09-28T20:09:43.224Z,10.34
2022-09-28T20:12:58.616Z,10.30
2022-09-28T20:16:24.121Z,10.24
2022-09-28T20:19:33.053Z,10.18
2022-09-28T20:22:43.437Z,10.13
2022-09-28T20:25:53.633Z,10.09
2022-09-28T20:29:09.208Z,10.04
2022-09-28T20:32:18.604Z,10.00
2022-09-28T20:35:32.989Z,9.96
2022-09-28T20:38:42.416Z,9.92
2022-09-28T20:41:51.049Z,9.89
2022-09-28T20:44:57.989Z,9.86
2022-09-28T20:47:56.564Z,9.83
2022-09-28T20:51:11.592Z,9.80
2022-09-28T20:54:21.163Z,9.76
2022-09-28T20:57:35.754Z,9.73
2022-09-28T21:00:50.821Z,9.69
2022-09-28T21:03:39.248Z,9.65
2022-09-28T21:06:54.404Z,9.62
2022-09-28T21:09:45.662Z,9.59
2022-09-28T21:12:38.660Z,9.57
2022-09-28T21:16:06.451Z,9.55
2022-09-28T21:19:15.081Z,9.51
2022-09-28T21:22:23.588Z,9.49
2022-09-28T21:29:19.368Z,9.45
2022-09-28T21:33:06.562Z,9.42
2022-09-28T21:36:15.024Z,9.39
2022-09-28T21:39:56.115Z,9.36
2022-09-28T21:43:04.702Z,9.34
2022-09-28T21:46:19.225Z,9.33
2022-09-28T21:49:27.736Z,9.30
2022-09-28T21:52:36.126Z,9.28
2022-09-28T21:55:52.612Z,9.24
2022-09-28T21:59:01.182Z,9.23
2022-09-28T22:02:09.982Z,9.21
2022-09-28T22:05:26.052Z,9.20
2022-09-28T22:08:36.040Z,9.19
2022-09-28T22:12:20.665Z,9.18
2022-09-28T22:15:29.601Z,9.17
2022-09-28T22:18:44.597Z,9.15
2022-09-28T22:21:59.600Z,9.12
2022-09-28T22:25:25.619Z,9.10
2022-09-28T22:32:23.230Z,9.06
2022-09-28T22:35:48.700Z,9.04
2022-09-28T22:43:24.743Z,9.00
2022-09-28T22:54:19.272Z,8.95
2022-09-28T22:55:06.600Z,8.92
2022-09-28T22:58:44.983Z,8.89
2022-09-28T23:01:53.775Z,8.87
2022-09-28T23:05:08.905Z,8.84
2022-09-28T23:12:58.785Z,8.76
2022-09-28T23:20:28.151Z,8.68
2022-09-28T23:23:38.279Z,8.66
2022-09-28T23:27:07.506Z,8.63
2022-09-28T23:30:54.201Z,8.62
2022-09-28T23:34:04.379Z,8.62
